Aviation Digital Data Service (ADDS)

Output produced by METARs form (0436 UTC 29 July 2014)
found at http://aviationweather.gov/adds/metars/
 
KDAG 290350Z AUTO 27010KT 10SM CLR 33/10 A3001 RMK AO2 SLP135 T03330100
KDAG 282338Z 2900/2924 25012G24KT P6SM VCTS FEW080CB SCT100 BKN150 
     FM290300 27013KT P6SM SCT120 BKN200 
     FM291800 25012KT P6SM SCT150
       
KEDW 290358Z 29011KT 40SM BKN110 BKN160 31/05 A3005 RMK AO2A SLP148 T03120053
TAF KEDW 2902/3008 27012KT 9999 FEW120 BKN150 BKN350 QNH3003INS 
     BECMG 2903/2904 24012KT 9999 FEW150 SCT350 QNH3005INS 
     BECMG 2909/2010 VRB06KT 9999 SCT350 QNH2998INS 
     BECMG 2923/2924 24012G22KT 9999 SCT150 BKN250 QNH2996INS 
     BECMG 3002/3003 24008KT 9999 SCT150 BKN250 QNH2999INS TX37/2921Z TN20/2913Z
       
KVCV 290415Z AUTO 29006KT 10SM CLR 30/06 A3012 RMK AO2
KONT 290353Z 26008KT 10SM FEW080 FEW150 SCT250 28/01 A3002 RMK AO2 SLP148 T02780006
KONT 282328Z 2900/3006 26012KT P6SM SCT150 
     FM290400 VRB04KT P6SM SCT200 
     FM292100 26012KT P6SM SCT200 
     FM300400 VRB04KT P6SM SCT200
       
KSNA 290353Z 23003KT 10SM CLR 25/15 A3001 RMK AO2 SLP161 T02500150
KSNA 282328Z 2900/2924 23008KT P6SM SCT100 SCT250 
     FM290300 VRB04KT P6SM SCT200 
     FM291900 23008KT P6SM SCT200
       
KSAN 290351Z 31004KT 10SM FEW012 SCT220 24/18 A3003 RMK AO2 SLP170 T02390178
KSAN 290304Z 2903/3006 VRB04KT P6SM SCT010 SCT200 
     FM291100 VRB04KT P6SM BKN009 
     FM291500 VRB04KT P6SM SCT010 SCT200 
     FM291900 29009KT P6SM SCT200 
     FM300200 VRB04KT P6SM SCT010 SCT200
       
KNID 290356Z 31013KT 10SM BKN110 29/13 A3006 RMK AO2 SLP158 T02940133
TAF AMD KNID 2904/2923 32015G25KT 9999 BKN110 QNH3003INS 
     TEMPO 2904/2907 33010KT 
     BECMG 2907/2909 VRB06KT 9999 SCT120 QNH3006INS 
     BECMG 2920/2922 23012G19KT 9999 SCT150 BKN250 QNH2998INS T23/2814Z T39/2923Z LAST NO AMD AFT 2905/ NEXT 2915 AMD 0400
       
KNXP 290356Z 29005KT 10SM SCT120 33/13 A3008 RMK AO2 SLP145 T03280128
TAF KNXP 2903/3003 27008KT 9999 FEW100 SCT200 QNH3004INS 
     BECMG 2914/2916 VRB05KT 9999 FEW100 QNH2997INS T27/2913Z T42/2922Z
       
KPSP 290353Z 32015KT 10SM CLR 37/09 A2990 RMK AO2 SLP120 T03720089
KPSP 282328Z 2900/2924 VRB05KT P6SM SCT080 BKN150 
     FM290200 32011KT P6SM SCT200 
     FM290600 VRB05KT P6SM SCT200
       
KLAX 290353Z 27010KT 10SM FEW150 21/18 A3001 RMK AO2 SLP160 T02060178 $
KLAX 290403Z 2904/3006 26010KT P6SM FEW150 
     FM290600 VRB03KT P6SM FEW150 
     FM291300 VRB03KT P6SM BKN009 
     FM291700 25006KT P6SM SCT200 
     FM292000 25012KT P6SM SKC 
     FM300300 24006KT P6SM SKC
       
KCNO 290353Z AUTO 25006KT 9SM CLR 24/01 A3003 RMK AO2 SLP162 T02440011
KSMO 290351Z AUTO 18003KT 10SM FEW007 21/18 A3001 RMK AO2 SLP160 T02110178
KLGB 290353Z 31008KT 10SM CLR 22/18 A3001 RMK AO2 SLP161 T02170178 $
KLGB 290404Z 2904/2924 29012KT P6SM FEW200 
     FM290500 VRB03KT P6SM SCT150 
     FM291100 VRB03KT P6SM BKN009 
     FM291600 VRB03KT P6SM SCT012 SCT200 
     FM291900 21008KT P6SM SKC 
     FM292300 29008KT P6SM SKC
       
KVNY 290351Z 27004KT 10SM CLR 28/01 A3002 RMK AO2 SLP156 T02780011
KVNY 282333Z 2900/2924 16010KT P6SM FEW150 
     FM290400 VRB03KT P6SM SCT150 
     FM291800 14007KT P6SM SKC 
     FM292200 16012KT P6SM SKC
       
KBUR 290353Z 09003KT 10SM CLR 26/10 A3002 RMK AO2 SLP153 T02610100
KBUR 282333Z 2900/2924 17010KT P6SM FEW150 
     FM290400 VRB03KT P6SM SCT150 
     FM291800 16008KT P6SM SKC
       
KBFL 290354Z 00000KT 10SM CLR 33/04 A2997 RMK AO2 SLP139 T03280044
KBFL 282320Z 2900/2924 32010KT P6SM BKN150 
     FM290300 35007KT P6SM BKN150 
     FM290800 VRB04KT P6SM BKN150 
     FM291800 30009KT P6SM BKN200
       
KPMD 290353Z AUTO 24007KT 10SM OVC120 29/07 A3010 RMK AO2 SLP161 T02940067
KPMD 282333Z 2900/2924 24017G25KT P6SM VCTS SCT060CB BKN120 
     FM290300 24012KT P6SM BKN120 
     FM290900 21007KT P6SM SCT150 
     FM291900 27008KT P6SM SCT200 
     FM292200 25015G25KT P6SM SCT200
       
KOXR 290351Z AUTO 30009KT 9SM CLR 19/17 A3002 RMK AO2 SLP166 T01890167
KOXR 282333Z 2900/2924 34010KT P6SM OVC150 
     FM290400 VRB03KT P6SM SCT150 
     FM291000 VRB03KT P6SM SCT008 
     FM291800 18006KT P6SM SCT200 
     FM292100 26012KT P6SM SKC
       
KWJF 290356Z 27010KT 10SM CLR 29/07 A3009 RMK AO2 SLP165 T02940072 $
KWJF 282333Z 2900/2924 24017G25KT P6SM VCTS SCT060CB BKN120 
     FM290300 24012KT P6SM BKN120 
     FM290900 23008KT P6SM SCT150 
     FM292000 24015G25KT P6SM SCT200
       
KCMA 290355Z 29006KT 10SM CLR 21/16 A3003 RMK AO2 SLP177 T02060161
KFAT 290353Z 30007KT 10SM FEW100 BKN150 BKN200 33/11 A2996 RMK AO2 SLP141 T03280106
KFAT 282320Z 2900/2924 31008KT P6SM BKN150 
     FM290900 VRB04KT P6SM BKN150 
     TEMPO 2914/2917 12006KT 
     FM292200 30008KT P6SM BKN200
       
KEED 290425Z AUTO 17005KT 10SM SCT110 28/21 A2996 RMK AO2 WSHFT 0346 T02830211 $
KEED 290325Z 2903/2924 27015KT P6SM VCTS SCT100CB BKN150 
     FM290500 27009KT P6SM SCT120 BKN200 
     FM291300 VRB05KT P6SM SCT150 
     FM292000 22011KT P6SM SCT150
       
KLSV 290358Z AUTO 15005KT 10SM CLR 29/18 A3002 RMK AO2 SLP142 T02930181 $
TAF AMD KLSV 2901/3007 24012KT 9999 BKN100 BKN150 QNH2997INS 
     TEMPO 2901/2906 VRB20G35KT VCTS BKN080CB 
     BECMG 2905/2906 14009KT 9999 SCT180 QNH3002INS 
     BECMG 2918/2919 VRB12G20KT 9999 VCTS BKN010CB BKN150 QNH2998INS 
     BECMG 2923/2924 18009KT 9999 NSW SCT100 BKN150 QNH3003INS TX38/2922Z TN27/2912Z AMD 290138
       
KLAS 290356Z 18007KT 10SM FEW140 BKN250 29/17 A3001 RMK AO2 SLP135 T02940167
KLAS 290253Z 2903/2924 19009KT P6SM SCT140 BKN200 
     FM291500 VRB05KT P6SM SCT200 
     FM292200 18010KT P6SM SCT120
       
KHII 290410Z AUTO 02009G17KT 10SM CLR 34/15 A2993 RMK AO2
KIFP 290415Z AUTO 02009KT 10SM FEW036 FEW047 FEW065 33/18 A2995 RMK AO2